Time;durP1;ratioP1;P1;durP2;ratioP2;P2;SDS_P1;SDS_P2;PMS_P1;PMS_P2;Temp;Humidity;BMP_temperature;BMP_pressure;BME280_temperature;BME280_humidity;BME280_pressure;Samples;Min_cycle;Max_cycle;Signal;HPM_P1;HPM_P2
2021/01/08 00:01:09;;;;;;;8.85;0.85;;;18.00;99.90;;;;;;5054471;23;20133;-81
2021/01/08 00:03:36;;;;;;;7.70;0.80;;;18.10;99.90;;;;;;5051367;28;20029;-80
2021/01/08 00:06:04;;;;;;;9.75;1.13;;;17.90;99.90;;;;;;5039325;28;20021;-78
2021/01/08 00:08:31;;;;;;;9.93;1.23;;;18.00;99.90;;;;;;5031673;28;20038;-80
2021/01/08 00:10:58;;;;;;;8.20;1.08;;;18.10;99.90;;;;;;5041362;28;20025;-80
2021/01/08 00:13:26;;;;;;;9.20;1.42;;;18.20;99.90;;;;;;5051895;28;20029;-80
2021/01/08 00:15:53;;;;;;;6.65;1.05;;;18.40;99.90;;;;;;5032707;28;20029;-80
2021/01/08 00:18:20;;;;;;;12.75;1.42;;;18.70;99.90;;;;;;5048256;28;20043;-80
2021/01/08 00:20:47;;;;;;;14.68;1.88;;;18.90;99.90;;;;;;5049364;28;20021;-81
2021/01/08 00:23:15;;;;;;;8.10;1.35;;;19.00;99.90;;;;;;5051352;28;20066;-81
2021/01/08 00:25:49;;;;;;;5.10;1.20;;;18.80;99.90;;;;;;5049351;28;20043;-80
2021/01/08 00:28:16;;;;;;;13.93;2.80;;;18.80;99.90;;;;;;5051122;28;20117;-80
2021/01/08 00:30:43;;;;;;;13.40;1.88;;;18.40;99.90;;;;;;5049485;28;20087;-81
2021/01/08 00:33:11;;;;;;;8.55;1.20;;;18.40;99.90;;;;;;5051204;28;20033;-82
2021/01/08 00:35:40;;;;;;;10.23;1.42;;;18.60;99.90;;;;;;5020913;23;20506;-82
2021/01/08 00:38:08;;;;;;;11.18;1.58;;;18.80;99.90;;;;;;5008276;28;20035;-82
2021/01/08 00:40:36;;;;;;;11.07;1.33;;;18.80;99.90;;;;;;4998530;28;20157;-82
2021/01/08 00:43:03;;;;;;;15.10;1.50;;;18.90;99.90;;;;;;5011401;28;20148;-82
2021/01/08 00:45:31;;;;;;;11.07;1.45;;;19.10;99.90;;;;;;5010625;28;20054;-81
2021/01/08 00:47:59;;;;;;;11.80;1.20;;;19.40;99.90;;;;;;5010995;28;20038;-83
2021/01/08 00:50:26;;;;;;;12.10;1.58;;;19.60;99.90;;;;;;5005492;28;20026;-80
2021/01/08 00:52:53;;;;;;;11.63;1.70;;;19.60;99.90;;;;;;4991935;28;20161;-80
2021/01/08 00:55:21;;;;;;;8.70;1.13;;;19.70;99.90;;;;;;5002344;28;20022;-80
2021/01/08 00:57:48;;;;;;;9.15;1.25;;;19.80;99.90;;;;;;5011374;28;20026;-81
2021/01/08 01:00:16;;;;;;;8.45;1.10;;;20.00;99.90;;;;;;5010032;28;20160;-80
2021/01/08 01:02:43;;;;;;;10.80;1.77;;;20.20;99.90;;;;;;5011055;28;20026;-80
2021/01/08 01:05:11;;;;;;;7.78;1.63;;;20.30;99.90;;;;;;4991705;28;20030;-80
2021/01/08 01:07:38;;;;;;;5.43;0.90;;;20.30;99.90;;;;;;5011010;28;20097;-80
2021/01/08 01:10:06;;;;;;;8.00;1.48;;;20.40;99.90;;;;;;5004311;28;20080;-81
2021/01/08 01:12:33;;;;;;;8.50;1.42;;;20.40;99.90;;;;;;4990444;28;20121;-82
2021/01/08 01:15:00;;;;;;;9.25;1.13;;;20.40;99.90;;;;;;5007156;28;20069;-77
2021/01/08 01:17:28;;;;;;;9.68;2.10;;;20.60;99.90;;;;;;4997680;28;20034;-76
2021/01/08 01:19:55;;;;;;;13.32;1.95;;;20.80;99.90;;;;;;4992774;28;20117;-77
2021/01/08 01:22:22;;;;;;;7.45;1.20;;;20.90;99.90;;;;;;5004024;28;20022;-75
2021/01/08 01:24:50;;;;;;;10.07;1.63;;;20.70;99.90;;;;;;5011308;28;20120;-74
2021/01/08 01:27:17;;;;;;;7.65;1.52;;;20.50;99.90;;;;;;5007719;28;20055;-75
2021/01/08 01:29:44;;;;;;;9.07;1.08;;;20.10;99.90;;;;;;5004174;28;20030;-76
2021/01/08 01:32:12;;;;;;;9.45;1.70;;;19.80;99.90;;;;;;4995938;28;20041;-76
2021/01/08 01:34:39;;;;;;;6.68;1.20;;;19.60;99.90;;;;;;5031352;23;20046;-75
2021/01/08 01:37:06;;;;;;;8.07;1.70;;;19.80;99.90;;;;;;5043432;23;20045;-77
2021/01/08 01:39:34;;;;;;;6.13;1.48;;;20.00;99.90;;;;;;5035588;22;20101;-77
2021/01/08 01:42:01;;;;;;;12.18;1.58;;;20.20;99.90;;;;;;5029890;28;20091;-76
2021/01/08 01:44:28;;;;;;;10.50;1.33;;;20.40;99.90;;;;;;5034409;23;20524;-77
2021/01/08 01:46:55;;;;;;;7.07;1.08;;;20.80;99.90;;;;;;5033892;28;20083;-75
2021/01/08 01:49:23;;;;;;;9.30;1.95;;;21.00;99.90;;;;;;5031222;28;20025;-76
2021/01/08 01:51:50;;;;;;;7.70;1.50;;;21.00;99.90;;;;;;5059773;22;20050;-77
2021/01/08 01:54:17;;;;;;;8.15;0.90;;;21.00;99.90;;;;;;5027104;28;20053;-75
2021/01/08 01:56:45;;;;;;;5.43;0.70;;;20.80;99.90;;;;;;5027238;28;20036;-78
2021/01/08 01:59:12;;;;;;;7.07;1.13;;;20.90;99.90;;;;;;5030364;28;20478;-75
2021/01/08 02:01:39;;;;;;;10.98;0.93;;;21.10;99.90;;;;;;5029760;28;20033;-76
2021/01/08 02:04:07;;;;;;;5.65;1.02;;;21.40;99.90;;;;;;5027654;28;20128;-74
2021/01/08 02:06:38;;;;;;;10.73;1.13;;;21.40;99.90;;;;;;5023339;28;20061;-74
2021/01/08 02:09:12;;;;;;;12.13;1.85;;;21.30;99.90;;;;;;5040825;22;20096;-76
2021/01/08 02:11:46;;;;;;;10.70;1.52;;;21.20;99.90;;;;;;5002437;28;20026;-74
2021/01/08 02:14:24;;;;;;;8.20;0.90;;;21.30;99.90;;;;;;5013453;28;20088;-75
2021/01/08 02:16:53;;;;;;;9.35;1.63;;;21.20;99.90;;;;;;5030195;28;20044;-78
2021/01/08 02:19:32;;;;;;;13.05;1.67;;;21.00;99.90;;;;;;5032481;28;20052;-79
2021/01/08 02:22:25;;;;;;;9.85;1.90;;;21.20;99.90;;;;;;4997687;28;20112;-80
2021/01/08 02:24:58;;;;;;;10.13;1.25;;;21.50;99.90;;;;;;5014445;28;20474;-79
2021/01/08 02:27:27;;;;;;;7.82;1.00;;;21.60;99.90;;;;;;5023581;28;20033;-79
2021/01/08 02:29:55;;;;;;;6.57;0.70;;;21.60;99.90;;;;;;5025986;28;20033;-79
2021/01/08 02:32:22;;;;;;;9.75;1.85;;;21.50;99.90;;;;;;5032901;28;20107;-78
2021/01/08 02:34:50;;;;;;;8.00;1.38;;;21.60;99.90;;;;;;5015439;28;20053;-78
2021/01/08 02:37:18;;;;;;;8.13;1.33;;;22.00;99.90;;;;;;5033359;28;20021;-80
2021/01/08 02:39:46;;;;;;;8.40;1.55;;;22.30;99.90;;;;;;5017146;28;20372;-80
2021/01/08 02:42:16;;;;;;;6.55;1.10;;;22.40;99.90;;;;;;5031416;22;20050;-78
2021/01/08 02:44:43;;;;;;;10.52;1.30;;;22.20;99.90;;;;;;4993872;28;20026;-82
2021/01/08 02:47:18;;;;;;;9.50;2.00;;;22.10;99.90;;;;;;4993393;28;20080;-81
2021/01/08 02:49:46;;;;;;;6.78;0.90;;;21.80;99.90;;;;;;4993553;28;20100;-82
2021/01/08 02:52:14;;;;;;;8.85;1.45;;;21.60;99.90;;;;;;5012044;28;20022;-80
2021/01/08 02:54:42;;;;;;;7.72;1.25;;;21.70;99.90;;;;;;4992937;28;20049;-81
2021/01/08 02:57:10;;;;;;;7.78;1.50;;;21.40;99.90;;;;;;4991274;28;20022;-81
2021/01/08 02:59:38;;;;;;;14.32;1.73;;;21.40;99.90;;;;;;5011216;28;20471;-81
2021/01/08 03:02:09;;;;;;;16.58;1.83;;;21.30;99.90;;;;;;5011652;28;20125;-81
2021/01/08 03:04:36;;;;;;;8.23;1.23;;;21.40;99.90;;;;;;5004371;28;20061;-80
2021/01/08 03:07:08;;;;;;;9.88;2.30;;;21.50;99.90;;;;;;4996782;28;20026;-79
2021/01/08 03:09:38;;;;;;;7.75;1.25;;;21.30;99.90;;;;;;4997033;28;20072;-80
2021/01/08 03:12:05;;;;;;;10.88;1.95;;;21.30;99.90;;;;;;4993526;28;20038;-80
2021/01/08 03:14:33;;;;;;;6.80;1.58;;;21.30;99.90;;;;;;4994664;28;20130;-83
2021/01/08 03:17:00;;;;;;;5.20;1.33;;;21.50;99.90;;;;;;4998173;28;20513;-81
2021/01/08 03:19:27;;;;;;;9.02;1.40;;;21.70;99.90;;;;;;5003933;28;20037;-82
2021/01/08 03:21:55;;;;;;;8.45;0.82;;;21.90;99.90;;;;;;5003074;28;20033;-81
2021/01/08 03:24:25;;;;;;;11.85;2.38;;;22.00;99.90;;;;;;4985308;28;20403;-80
2021/01/08 03:26:53;;;;;;;11.15;0.82;;;21.60;99.90;;;;;;4995278;23;20046;-80
2021/01/08 03:29:20;;;;;;;10.48;1.35;;;21.20;99.90;;;;;;4988412;28;20048;-80
2021/01/08 03:31:48;;;;;;;8.75;1.15;;;21.20;99.90;;;;;;5005038;28;20036;-80
2021/01/08 03:34:15;;;;;;;10.15;1.58;;;21.10;99.90;;;;;;5005571;28;20514;-80
2021/01/08 03:36:43;;;;;;;7.10;1.10;;;21.10;99.90;;;;;;5002415;28;20036;-82
2021/01/08 03:39:10;;;;;;;9.68;1.17;;;21.10;99.90;;;;;;5002373;28;20044;-79
2021/01/08 03:41:38;;;;;;;7.90;2.30;;;21.00;99.90;;;;;;5025039;23;20041;-80
2021/01/08 03:44:06;;;;;;;8.30;0.98;;;21.20;99.90;;;;;;5031887;23;20069;-80
2021/01/08 03:46:36;;;;;;;12.40;1.48;;;21.50;99.90;;;;;;5042850;22;20041;-80
2021/01/08 03:49:07;;;;;;;5.90;0.90;;;21.50;99.90;;;;;;5023613;22;20018;-81
2021/01/08 03:51:35;;;;;;;10.10;0.98;;;21.40;99.90;;;;;;5004735;28;20045;-85
2021/01/08 03:54:02;;;;;;;6.93;1.65;;;21.40;99.90;;;;;;5029699;28;20048;-83
2021/01/08 03:56:29;;;;;;;7.05;1.05;;;21.30;99.90;;;;;;5016228;28;20021;-81
2021/01/08 03:58:57;;;;;;;8.32;0.90;;;21.40;99.90;;;;;;5029562;23;20585;-83
2021/01/08 04:01:24;;;;;;;9.13;0.60;;;21.50;99.90;;;;;;4993289;28;20089;-81
2021/01/08 04:03:51;;;;;;;10.27;1.67;;;21.50;99.90;;;;;;5031574;28;20025;-81
2021/01/08 04:06:19;;;;;;;8.40;1.17;;;21.50;99.90;;;;;;5004064;28;20510;-81
2021/01/08 04:08:46;;;;;;;10.57;1.30;;;21.40;99.90;;;;;;4992927;28;20022;-81
2021/01/08 04:11:13;;;;;;;9.07;1.27;;;21.40;99.90;;;;;;5001079;28;20092;-81
2021/01/08 04:13:44;;;;;;;5.43;1.55;;;21.40;99.90;;;;;;5011490;28;20030;-87
2021/01/08 04:16:11;;;;;;;8.48;1.00;;;21.40;99.90;;;;;;5042188;23;20057;-82
2021/01/08 04:18:38;;;;;;;7.38;1.45;;;21.30;99.90;;;;;;5031582;28;20021;-82
2021/01/08 04:21:06;;;;;;;4.30;0.70;;;21.30;99.90;;;;;;5029658;28;20037;-83
2021/01/08 04:23:33;;;;;;;6.45;1.05;;;21.10;99.90;;;;;;5024651;28;20029;-82
2021/01/08 04:26:00;;;;;;;4.63;0.60;;;21.10;99.90;;;;;;5029369;28;20064;-83
2021/01/08 04:28:28;;;;;;;10.30;1.55;;;21.10;99.90;;;;;;5031197;28;20097;-82
2021/01/08 04:30:55;;;;;;;10.30;0.80;;;21.20;99.90;;;;;;5029069;28;20120;-82
2021/01/08 04:33:22;;;;;;;10.15;1.25;;;21.10;99.90;;;;;;5027530;28;20386;-86
2021/01/08 04:35:53;;;;;;;7.63;1.13;;;21.10;99.90;;;;;;5029818;28;20022;-85
2021/01/08 04:38:20;;;;;;;7.60;0.80;;;21.10;99.90;;;;;;5031539;28;20021;-79
2021/01/08 04:40:49;;;;;;;5.38;0.57;;;21.00;99.90;;;;;;5028690;28;20095;-80
2021/01/08 04:43:17;;;;;;;6.90;1.42;;;21.00;99.90;;;;;;5031524;28;20505;-88
2021/01/08 04:45:44;;;;;;;5.80;0.98;;;21.10;99.90;;;;;;5004104;28;20084;-80
2021/01/08 04:48:13;;;;;;;3.17;0.55;;;21.40;99.90;;;;;;5041631;23;20049;-81
2021/01/08 04:50:42;;;;;;;3.53;0.50;;;21.40;99.90;;;;;;5025813;28;20490;-80
2021/01/08 04:53:10;;;;;;;6.30;0.80;;;21.70;99.90;;;;;;5026841;28;20463;-78
2021/01/08 04:55:38;;;;;;;3.63;0.50;;;21.80;99.90;;;;;;5012097;28;20098;-82
2021/01/08 04:58:08;;;;;;;7.82;1.23;;;21.80;99.90;;;;;;5025909;28;20025;-83
2021/01/08 05:00:38;;;;;;;3.80;0.63;;;21.50;99.90;;;;;;5032841;28;20021;-81
2021/01/08 05:03:06;;;;;;;7.50;0.77;;;21.50;99.90;;;;;;5029859;28;20034;-80
2021/01/08 05:05:33;;;;;;;7.10;1.20;;;21.40;99.90;;;;;;5029659;28;20524;-80
2021/01/08 05:08:00;;;;;;;2.85;0.43;;;21.60;99.90;;;;;;5026599;28;20490;-80
2021/01/08 05:10:28;;;;;;;5.57;0.85;;;21.60;99.90;;;;;;5027030;28;20050;-81
2021/01/08 05:12:55;;;;;;;4.57;0.45;;;21.50;99.90;;;;;;5033330;28;20029;-79
2021/01/08 05:15:25;;;;;;;7.07;0.82;;;21.20;99.90;;;;;;5030150;28;20022;-84
2021/01/08 05:17:55;;;;;;;3.83;0.68;;;21.10;99.90;;;;;;5017355;28;20030;-89
2021/01/08 05:20:24;;;;;;;4.93;0.70;;;21.30;99.90;;;;;;5031346;28;20116;-83
2021/01/08 05:22:52;;;;;;;6.45;0.85;;;21.60;99.90;;;;;;5029031;28;20032;-79
2021/01/08 05:25:20;;;;;;;4.18;0.63;;;21.80;99.90;;;;;;5027327;28;20021;-80
2021/01/08 05:27:48;;;;;;;6.43;1.05;;;21.90;99.90;;;;;;5016624;28;20041;-79
2021/01/08 05:30:25;;;;;;;4.45;0.80;;;22.00;99.90;;;;;;5023586;28;20475;-83
2021/01/08 05:33:00;;;;;;;4.63;0.75;;;22.10;99.90;;;;;;5027262;28;20037;-78
2021/01/08 05:35:30;;;;;;;4.75;0.80;;;21.70;99.90;;;;;;5031846;28;20151;-79
2021/01/08 05:38:03;;;;;;;8.07;0.60;;;21.60;99.90;;;;;;5028557;28;20104;-78
2021/01/08 05:40:30;;;;;;;3.13;0.40;;;21.50;99.90;;;;;;5024788;28;20618;-80
2021/01/08 05:43:00;;;;;;;5.18;0.50;;;21.40;99.90;;;;;;5030634;28;20033;-80
2021/01/08 05:45:29;;;;;;;7.47;0.68;;;21.40;99.90;;;;;;5000454;28;20037;-79
2021/01/08 05:47:59;;;;;;;5.68;1.00;;;21.40;99.90;;;;;;5032068;28;20474;-78
2021/01/08 05:50:28;;;;;;;4.60;1.05;;;21.30;99.90;;;;;;5034054;22;20058;-79
2021/01/08 05:53:09;;;;;;;5.10;0.40;;;21.40;99.90;;;;;;5028393;23;20081;-78
2021/01/08 05:55:44;;;;;;;6.35;0.85;;;21.30;99.90;;;;;;5018502;28;20034;-79
2021/01/08 05:58:21;;;;;;;4.00;0.60;;;21.30;99.90;;;;;;5049860;22;20098;-80
2021/01/08 06:00:59;;;;;;;9.85;1.02;;;21.60;99.90;;;;;;5030775;28;20025;-81
2021/01/08 06:03:27;;;;;;;12.27;1.00;;;22.10;99.90;;;;;;5027265;28;20029;-80
2021/01/08 06:05:56;;;;;;;7.90;1.10;;;22.40;99.90;;;;;;5031746;23;20049;-82
2021/01/08 06:08:32;;;;;;;4.93;0.70;;;22.10;99.90;;;;;;5004039;28;20389;-80
2021/01/08 06:11:01;;;;;;;7.53;1.58;;;21.80;99.90;;;;;;5011926;28;20022;-80
2021/01/08 06:13:31;;;;;;;7.63;1.10;;;21.50;99.90;;;;;;5031819;28;20044;-79
2021/01/08 06:16:01;;;;;;;6.30;1.20;;;21.50;99.90;;;;;;5004894;28;20030;-79
2021/01/08 06:18:29;;;;;;;7.93;1.02;;;21.50;99.90;;;;;;5016977;28;20052;-78
2021/01/08 06:21:09;;;;;;;6.65;0.93;;;21.50;99.90;;;;;;5024644;28;20108;-78
2021/01/08 06:23:41;;;;;;;7.07;0.47;;;21.50;99.90;;;;;;5031211;22;20049;-78
2021/01/08 06:26:10;;;;;;;10.45;0.70;;;21.30;99.90;;;;;;5007194;28;20294;-80
2021/01/08 06:28:45;;;;;;;7.10;1.63;;;21.20;99.90;;;;;;4988077;28;20015;-80
2021/01/08 06:31:23;;;;;;;9.32;0.80;;;21.30;99.90;;;;;;4986672;28;20116;-79
2021/01/08 06:33:54;;;;;;;7.25;1.10;;;21.20;99.90;;;;;;4994101;28;20018;-79
2021/01/08 06:36:23;;;;;;;9.50;1.33;;;21.20;99.90;;;;;;4986468;28;20045;-82
2021/01/08 06:38:59;;;;;;;5.82;0.82;;;21.20;99.90;;;;;;4984028;28;20018;-79
2021/01/08 06:41:26;;;;;;;5.15;0.68;;;21.20;99.90;;;;;;4987441;28;20038;-79
2021/01/08 06:44:07;;;;;;;7.15;0.82;;;21.10;99.90;;;;;;4984133;28;20077;-79
2021/01/08 06:46:39;;;;;;;10.00;1.15;;;21.10;99.90;;;;;;4990185;28;20022;-79
2021/01/08 06:49:08;;;;;;;6.65;1.20;;;21.00;99.90;;;;;;4991311;28;20018;-83
2021/01/08 06:51:37;;;;;;;8.98;1.20;;;21.00;99.90;;;;;;4993879;28;20113;-78
2021/01/08 06:54:09;;;;;;;6.13;1.10;;;21.00;99.90;;;;;;4989154;28;20081;-79
2021/01/08 06:56:41;;;;;;;8.15;1.88;;;21.00;99.90;;;;;;5040403;22;20045;-79
2021/01/08 06:59:10;;;;;;;7.88;0.90;;;20.90;99.90;;;;;;5007104;28;20075;-79
2021/01/08 07:02:18;;;;;;;6.07;1.42;;;20.90;99.90;;;;;;5026028;28;20091;-87
2021/01/08 07:04:46;;;;;;;7.03;1.20;;;21.00;99.90;;;;;;4909525;29;20614;-82
2021/01/08 07:07:25;;;;;;;8.48;1.33;;;20.90;99.90;;;;;;5002603;28;20064;-83
2021/01/08 07:09:54;;;;;;;7.50;1.08;;;20.80;99.90;;;;;;5028175;28;20021;-83
2021/01/08 07:12:26;;;;;;;6.50;0.80;;;20.80;99.90;;;;;;5029188;28;20033;-81
2021/01/08 07:14:53;;;;;;;8.05;1.50;;;20.70;99.90;;;;;;5025215;28;20478;-79
2021/01/08 07:17:31;;;;;;;8.90;1.02;;;20.80;99.90;;;;;;5027762;28;20017;-80
2021/01/08 07:20:01;;;;;;;9.18;1.65;;;20.80;99.90;;;;;;5001638;28;20059;-79
2021/01/08 07:22:39;;;;;;;6.22;1.42;;;20.70;99.90;;;;;;5027043;28;20025;-79
2021/01/08 07:25:11;;;;;;;4.43;0.77;;;20.70;99.90;;;;;;5020300;28;20038;-81
2021/01/08 07:27:42;;;;;;;6.50;1.10;;;20.70;99.90;;;;;;5008905;28;20451;-78
2021/01/08 07:30:10;;;;;;;5.07;0.88;;;20.60;99.90;;;;;;5010655;28;20039;-79
2021/01/08 07:32:37;;;;;;;6.53;0.82;;;20.60;99.90;;;;;;5007445;28;20116;-80
2021/01/08 07:35:33;;;;;;;6.80;1.13;;;20.60;99.90;;;;;;5025905;28;20057;-80
2021/01/08 07:38:05;;;;;;;5.97;0.68;;;20.60;99.90;;;;;;5026698;28;20025;-79
2021/01/08 07:40:37;;;;;;;9.35;0.80;;;20.50;99.90;;;;;;5028596;28;20383;-80
2021/01/08 07:43:09;;;;;;;4.25;1.20;;;20.60;99.90;;;;;;5024336;28;20026;-81
2021/01/08 07:45:57;;;;;;;9.23;1.23;;;20.50;99.90;;;;;;5031587;28;20081;-80
2021/01/08 07:48:35;;;;;;;6.57;1.55;;;20.60;99.90;;;;;;5016435;28;20033;-80
2021/01/08 07:51:18;;;;;;;5.25;1.00;;;20.60;99.90;;;;;;5025120;28;20166;-79
2021/01/08 07:53:45;;;;;;;7.38;0.95;;;20.60;99.90;;;;;;5029569;28;20483;-80
2021/01/08 07:59:04;;;;;;;4.25;0.60;;;20.70;99.90;;;;;;5063072;22;20111;-80
2021/01/08 08:01:32;;;;;;;6.45;0.73;;;20.60;99.90;;;;;;5031469;28;20084;-84
2021/01/08 08:04:04;;;;;;;6.72;1.40;;;20.50;99.90;;;;;;5028330;23;20470;-79
2021/01/08 08:06:35;;;;;;;7.43;1.00;;;20.50;99.90;;;;;;5031543;28;20018;-80
2021/01/08 08:09:05;;;;;;;5.22;0.65;;;20.50;99.90;;;;;;5027324;28;20025;-80
2021/01/08 08:11:35;;;;;;;5.95;1.08;;;20.40;99.90;;;;;;5031770;28;20521;-80
2021/01/08 08:14:09;;;;;;;6.88;0.98;;;20.40;99.90;;;;;;5037322;23;20081;-80
2021/01/08 08:16:39;;;;;;;9.35;1.48;;;20.40;99.90;;;;;;5024869;28;20021;-80
2021/01/08 08:19:11;;;;;;;6.50;1.30;;;20.40;99.90;;;;;;5026136;28;20030;-82
2021/01/08 08:21:45;;;;;;;9.57;1.52;;;20.40;99.90;;;;;;5020828;28;20017;-79
2021/01/08 08:24:21;;;;;;;4.43;0.60;;;20.40;99.90;;;;;;5008987;28;20042;-79
2021/01/08 08:26:48;;;;;;;8.32;1.55;;;20.40;99.90;;;;;;5015386;28;20030;-80
2021/01/08 08:29:17;;;;;;;6.22;0.90;;;20.40;99.90;;;;;;5028458;23;20080;-79
2021/01/08 08:31:50;;;;;;;4.55;0.73;;;20.30;99.90;;;;;;5000473;28;20030;-80
2021/01/08 08:34:37;;;;;;;6.28;1.00;;;20.30;99.90;;;;;;5010952;28;20501;-80
2021/01/08 08:37:09;;;;;;;4.72;0.93;;;20.30;99.90;;;;;;5018475;28;20025;-80
2021/01/08 08:39:36;;;;;;;4.75;0.80;;;20.30;99.90;;;;;;4994831;28;20109;-78
2021/01/08 08:42:04;;;;;;;2.92;0.68;;;20.30;99.90;;;;;;4991632;28;20026;-79
2021/01/08 08:44:42;;;;;;;3.40;0.82;;;20.20;99.90;;;;;;5009508;28;20112;-78
2021/01/08 08:47:11;;;;;;;5.05;0.70;;;20.20;99.90;;;;;;4994352;28;20403;-79
2021/01/08 08:49:39;;;;;;;14.18;1.80;;;20.20;99.90;;;;;;5013044;28;20029;-79
2021/01/08 08:52:06;;;;;;;8.63;1.08;;;20.20;99.90;;;;;;4998973;28;20037;-79
2021/01/08 08:54:40;;;;;;;6.35;1.55;;;20.20;99.90;;;;;;5007666;28;20509;-79
2021/01/08 08:57:08;;;;;;;4.53;0.60;;;20.20;99.90;;;;;;5023296;28;20511;-79
2021/01/08 08:59:45;;;;;;;5.60;0.63;;;20.20;99.90;;;;;;5008562;28;20041;-80
2021/01/08 09:02:23;;;;;;;10.05;0.82;;;20.20;99.90;;;;;;5015920;22;20045;-80
2021/01/08 09:05:02;;;;;;;3.17;0.90;;;20.20;99.90;;;;;;5020599;28;20140;-79
2021/01/08 09:07:36;;;;;;;6.95;0.90;;;20.20;99.90;;;;;;5003919;28;20034;-79
2021/01/08 09:10:13;;;;;;;10.18;1.45;;;20.10;99.90;;;;;;5008219;28;20483;-80
2021/01/08 09:13:10;;;;;;;5.15;0.90;;;20.10;99.90;;;;;;5010739;28;20026;-79
2021/01/08 09:16:12;;;;;;;6.07;0.88;;;20.00;99.90;;;;;;5000899;28;20042;-80
2021/01/08 09:18:39;;;;;;;5.57;0.80;;;20.10;99.90;;;;;;4997585;28;20120;-79
2021/01/08 09:21:17;;;;;;;5.28;0.90;;;20.10;99.90;;;;;;5006438;28;20026;-79
2021/01/08 09:23:47;;;;;;;6.72;1.33;;;20.00;99.90;;;;;;4999189;28;20065;-79
2021/01/08 09:26:17;;;;;;;5.22;1.30;;;20.10;99.90;;;;;;4999762;28;20030;-80
2021/01/08 09:28:52;;;;;;;9.13;1.05;;;20.00;99.90;;;;;;5009097;28;20045;-80
2021/01/08 09:31:37;;;;;;;8.38;1.10;;;20.00;99.90;;;;;;5005665;28;20109;-80
2021/01/08 09:34:04;;;;;;;8.18;1.00;;;20.00;99.90;;;;;;5006509;28;20129;-79
2021/01/08 09:36:37;;;;;;;10.73;1.27;;;20.00;99.90;;;;;;5002855;28;20505;-79
2021/01/08 09:39:10;;;;;;;5.15;0.98;;;19.90;99.90;;;;;;4977206;28;20060;-80
2021/01/08 09:41:39;;;;;;;6.95;1.42;;;19.90;99.90;;;;;;5011369;28;20030;-80
2021/01/08 09:44:12;;;;;;;6.63;1.10;;;19.90;99.90;;;;;;5014122;28;20447;-80
2021/01/08 09:46:51;;;;;;;13.30;1.40;;;19.90;99.90;;;;;;5013606;28;20058;-79
2021/01/08 09:49:18;;;;;;;5.00;0.90;;;19.80;99.90;;;;;;5014254;28;20022;-80
2021/01/08 09:51:46;;;;;;;8.95;1.08;;;19.80;99.90;;;;;;5005567;28;20483;-79
2021/01/08 09:54:13;;;;;;;7.25;1.20;;;19.80;99.90;;;;;;5013432;28;20084;-80
2021/01/08 09:56:51;;;;;;;5.85;1.20;;;19.80;99.90;;;;;;5009849;28;20026;-79
2021/01/08 09:59:19;;;;;;;7.68;1.58;;;19.70;99.90;;;;;;4994231;28;20026;-80
2021/01/08 10:02:06;;;;;;;5.65;0.70;;;19.70;99.90;;;;;;4993308;28;20106;-79
2021/01/08 10:04:35;;;;;;;10.02;0.98;;;19.60;99.90;;;;;;5050874;22;20482;-78
2021/01/08 10:07:07;;;;;;;5.93;1.05;;;19.70;99.90;;;;;;5039393;22;20567;-78
2021/01/08 10:09:52;;;;;;;8.73;1.70;;;19.70;99.90;;;;;;5030612;28;20029;-78
2021/01/08 10:12:21;;;;;;;9.65;1.17;;;19.60;99.90;;;;;;5046167;23;20053;-78
2021/01/08 10:14:49;;;;;;;10.95;1.48;;;19.60;99.90;;;;;;5031716;28;20116;-79
2021/01/08 10:17:18;;;;;;;9.40;1.23;;;19.60;99.90;;;;;;5012961;28;20025;-80
2021/01/08 10:19:48;;;;;;;6.47;0.93;;;19.60;99.90;;;;;;5046792;22;20057;-80
2021/01/08 10:22:21;;;;;;;6.38;1.17;;;19.50;99.90;;;;;;5035785;28;20112;-81
2021/01/08 10:24:49;;;;;;;6.78;0.90;;;19.60;99.90;;;;;;5028880;28;20030;-80
2021/01/08 10:27:24;;;;;;;5.55;0.77;;;19.50;99.90;;;;;;5017678;28;20028;-80
2021/01/08 10:29:51;;;;;;;10.60;1.40;;;19.50;99.90;;;;;;5005527;28;20031;-80
2021/01/08 10:32:19;;;;;;;9.63;1.15;;;19.50;99.90;;;;;;4996846;28;20041;-80
2021/01/08 10:34:46;;;;;;;8.60;0.88;;;19.50;99.90;;;;;;5008938;28;20033;-80
2021/01/08 10:37:20;;;;;;;5.43;1.25;;;19.50;99.90;;;;;;5051116;23;20056;-80
2021/01/08 10:39:47;;;;;;;;;;;19.50;99.90;;;;;;5037577;28;20021;-80
2021/01/08 10:42:17;;;;;;;5.88;0.90;;;19.50;99.90;;;;;;5023539;28;20004;-80
2021/01/08 10:44:44;;;;;;;8.75;1.30;;;19.50;99.90;;;;;;5032850;28;20447;-80
2021/01/08 10:47:12;;;;;;;10.15;1.00;;;19.50;99.90;;;;;;5007620;28;20026;-80
2021/01/08 10:49:39;;;;;;;15.30;1.67;;;19.50;99.90;;;;;;5011869;28;20026;-80
2021/01/08 10:52:09;;;;;;;7.75;1.20;;;19.50;99.90;;;;;;5012680;28;20022;-79
2021/01/08 10:54:37;;;;;;;8.50;1.02;;;19.50;99.90;;;;;;5012731;28;20080;-80
2021/01/08 10:57:04;;;;;;;5.93;0.80;;;19.40;99.90;;;;;;5027851;28;20479;-79
2021/01/08 10:59:31;;;;;;;5.60;1.08;;;19.40;99.90;;;;;;5019646;28;20116;-80
2021/01/08 11:01:59;;;;;;;4.95;0.80;;;19.50;99.90;;;;;;5012730;28;20021;-80
2021/01/08 11:04:26;;;;;;;4.53;0.60;;;19.50;99.90;;;;;;5013091;28;20034;-80
2021/01/08 11:06:57;;;;;;;7.03;0.70;;;19.50;99.90;;;;;;5012872;28;20423;-80
2021/01/08 11:09:24;;;;;;;5.38;0.40;;;19.50;99.90;;;;;;5034656;22;20050;-80
2021/01/08 11:11:52;;;;;;;5.68;0.90;;;19.50;99.90;;;;;;5032512;28;20021;-80
2021/01/08 11:14:19;;;;;;;6.35;0.70;;;19.50;99.90;;;;;;5029976;28;20048;-80
2021/01/08 11:16:47;;;;;;;6.07;0.95;;;19.60;99.90;;;;;;5032355;28;20029;-81
2021/01/08 11:19:14;;;;;;;4.40;0.68;;;19.60;99.90;;;;;;5032479;28;20032;-80
2021/01/08 11:21:42;;;;;;;8.23;1.88;;;19.50;99.90;;;;;;5032570;28;20021;-80
2021/01/08 11:24:09;;;;;;;9.88;1.92;;;19.50;99.90;;;;;;5032206;28;20478;-80
2021/01/08 11:26:36;;;;;;;8.43;1.20;;;19.60;99.90;;;;;;5032371;28;20032;-80
2021/01/08 11:29:04;;;;;;;7.15;0.70;;;19.60;99.90;;;;;;5018712;28;20026;-80
2021/01/08 11:31:32;;;;;;;7.35;0.68;;;19.50;99.90;;;;;;4994888;28;20017;-80
2021/01/08 11:33:59;;;;;;;8.02;1.40;;;19.60;99.90;;;;;;5021629;28;20039;-80
2021/01/08 11:36:27;;;;;;;3.20;0.70;;;19.60;99.90;;;;;;5031922;28;20022;-80
2021/01/08 11:38:54;;;;;;;4.95;0.57;;;19.50;99.90;;;;;;5031992;28;20132;-80
2021/01/08 11:41:23;;;;;;;6.35;0.80;;;19.50;99.90;;;;;;5031092;28;20475;-80
2021/01/08 11:43:50;;;;;;;8.68;0.90;;;19.40;99.90;;;;;;5032259;28;20033;-81
2021/01/08 11:46:18;;;;;;;7.18;2.17;;;19.40;99.90;;;;;;5031939;28;20104;-80
2021/01/08 11:48:47;;;;;;;5.97;0.47;;;19.40;99.90;;;;;;5032121;28;20071;-79
2021/01/08 11:51:17;;;;;;;5.10;0.75;;;19.40;99.90;;;;;;5000664;28;20109;-80
2021/01/08 11:53:46;;;;;;;9.52;1.05;;;19.40;99.90;;;;;;5027219;28;20120;-80
2021/01/08 11:56:14;;;;;;;6.75;1.08;;;19.30;99.90;;;;;;5031872;28;20502;-80
2021/01/08 11:58:43;;;;;;;6.30;0.88;;;19.30;99.90;;;;;;5031840;28;20022;-80
2021/01/08 12:01:11;;;;;;;7.47;0.88;;;19.20;99.90;;;;;;5031629;28;20025;-80
2021/01/08 12:03:40;;;;;;;5.82;1.15;;;19.20;99.90;;;;;;5031606;28;20481;-80
2021/01/08 12:06:09;;;;;;;5.40;0.88;;;19.10;99.90;;;;;;5031041;28;20379;-80
2021/01/08 12:08:37;;;;;;;4.35;0.57;;;19.10;99.90;;;;;;5029298;28;20030;-80
2021/01/08 12:11:04;;;;;;;5.00;1.05;;;19.10;99.90;;;;;;5054986;22;20049;-80
2021/01/08 12:13:31;;;;;;;4.57;1.00;;;19.10;99.90;;;;;;5048276;22;20049;-80
2021/01/08 12:15:59;;;;;;;3.28;0.47;;;19.00;99.90;;;;;;5031725;28;20110;-80
2021/01/08 12:18:26;;;;;;;4.85;1.00;;;18.90;99.90;;;;;;5038924;23;20060;-80
2021/01/08 12:20:53;;;;;;;7.28;1.45;;;18.90;99.90;;;;;;5031551;28;20048;-80
2021/01/08 12:23:20;;;;;;;4.63;0.68;;;18.90;99.90;;;;;;5027167;28;20032;-80
2021/01/08 12:25:48;;;;;;;7.80;1.85;;;19.00;99.90;;;;;;5011325;28;20048;-80
2021/01/08 12:28:15;;;;;;;7.18;0.60;;;18.90;99.90;;;;;;5041452;22;20104;-80
2021/01/08 12:30:44;;;;;;;5.00;0.60;;;19.00;99.90;;;;;;5011374;28;20164;-80
2021/01/08 12:33:11;;;;;;;6.82;1.48;;;18.90;99.90;;;;;;5003286;28;20036;-80
2021/01/08 12:35:39;;;;;;;7.38;1.20;;;18.80;99.90;;;;;;5013340;28;20104;-80
2021/01/08 12:38:06;;;;;;;3.78;0.75;;;18.80;99.90;;;;;;5011302;28;20558;-80
2021/01/08 12:40:33;;;;;;;4.82;0.70;;;18.80;99.90;;;;;;5005277;28;20033;-80
2021/01/08 12:43:01;;;;;;;9.60;1.85;;;18.80;99.90;;;;;;5028477;23;20034;-80
2021/01/08 12:45:28;;;;;;;8.45;0.75;;;18.70;99.90;;;;;;5028791;28;20025;-80
2021/01/08 12:47:55;;;;;;;5.78;0.85;;;18.70;99.90;;;;;;5031127;28;20021;-80
2021/01/08 12:50:22;;;;;;;8.70;1.27;;;18.60;99.90;;;;;;5028964;28;20021;-80
2021/01/08 12:52:50;;;;;;;9.20;2.05;;;18.60;99.90;;;;;;5020414;28;20018;-80
2021/01/08 12:55:17;;;;;;;5.40;1.25;;;18.60;99.90;;;;;;5015148;28;20033;-80
2021/01/08 12:57:44;;;;;;;8.05;0.85;;;18.60;99.90;;;;;;5026378;28;20027;-80
2021/01/08 13:00:13;;;;;;;4.53;1.10;;;18.60;99.90;;;;;;5013980;28;20124;-80
2021/01/08 13:02:41;;;;;;;6.85;1.10;;;18.50;99.90;;;;;;5028787;28;20035;-81